createdAt,value
2019-04-20T00:00:57.799Z,102845.27
2019-04-20T00:03:35.284Z,102838.92
2019-04-20T00:06:03.593Z,102836.88
2019-04-20T00:08:39.154Z,102836.23
2019-04-20T00:11:16.321Z,102836.94
2019-04-20T00:13:52.928Z,102835.43
2019-04-20T00:16:18.990Z,102831.78
2019-04-20T00:18:55.420Z,102831.58
2019-04-20T00:21:25.102Z,102836.19
2019-04-20T00:24:03.016Z,102829.83
2019-04-20T00:27:04.767Z,102828.80
2019-04-20T00:29:27.259Z,102826.42
2019-04-20T00:31:53.868Z,102832.26
2019-04-20T00:34:24.161Z,102827.21
2019-04-20T00:36:49.747Z,102827.91
2019-04-20T00:39:23.658Z,102824.70
2019-04-20T00:42:03.785Z,102828.44
2019-04-20T00:44:35.936Z,102826.91
2019-04-20T00:47:15.572Z,102831.14
2019-04-20T00:49:55.114Z,102833.64
2019-04-20T00:52:27.647Z,102826.87
2019-04-20T00:54:47.314Z,102828.47
2019-04-20T00:57:30.503Z,102829.23
2019-04-20T01:00:12.547Z,102830.02
2019-04-20T01:02:40.721Z,102825.58
2019-04-20T01:05:19.618Z,102824.62
2019-04-20T01:07:43.260Z,102829.88
2019-04-20T01:10:11.038Z,102826.77
2019-04-20T01:12:44.471Z,102824.50
2019-04-20T01:15:28.068Z,102829.75
2019-04-20T01:17:52.429Z,102827.95
2019-04-20T01:20:26.338Z,102827.41
2019-04-20T01:23:04.780Z,102828.52
2019-04-20T01:25:37.860Z,102822.69
2019-04-20T01:28:24.223Z,102828.62
2019-04-20T01:30:50.886Z,102828.12
2019-04-20T01:33:30.367Z,102826.20
2019-04-20T01:36:02.819Z,102828.20
2019-04-20T01:38:39.905Z,102827.56
2019-04-20T01:40:57.184Z,102828.28
2019-04-20T01:43:29.448Z,102825.94
2019-04-20T01:46:11.189Z,102839.38
2019-04-20T01:48:38.206Z,102835.23
2019-04-20T01:51:17.676Z,102835.45
2019-04-20T01:54:02.131Z,102836.67
2019-04-20T01:56:33.903Z,102835.77
2019-04-20T01:59:10.282Z,102843.59
2019-04-20T02:01:31.032Z,102840.06
2019-04-20T02:04:03.209Z,102844.00
2019-04-20T02:06:42.567Z,102846.98
2019-04-20T02:09:15.201Z,102845.04
2019-04-20T02:11:47.368Z,102846.48
2019-04-20T02:14:26.812Z,102847.48
2019-04-20T02:17:03.170Z,102848.74
2019-04-20T02:19:43.112Z,102847.61
2019-04-20T02:22:13.745Z,102848.29
2019-04-20T02:24:36.992Z,102845.12
2019-04-20T02:27:10.254Z,102842.36
2019-04-20T02:30:10.481Z,102843.94
2019-04-20T02:33:01.505Z,102849.94
2019-04-20T02:35:30.128Z,102848.48
2019-04-20T02:40:38.865Z,102855.21
2019-04-20T02:43:08.073Z,102853.67
2019-04-20T02:45:40.423Z,102853.20
2019-04-20T02:51:09.974Z,102851.72
2019-04-20T02:53:20.339Z,102852.42
2019-04-20T02:55:58.005Z,102854.00
2019-04-20T02:58:36.365Z,102855.12
2019-04-20T03:00:52.361Z,102850.64
2019-04-20T03:03:19.491Z,102847.38
2019-04-20T03:05:57.725Z,102852.97
2019-04-20T03:08:30.522Z,102850.67
2019-04-20T03:11:14.674Z,102849.17
2019-04-20T03:13:41.371Z,102847.41
2019-04-20T03:16:16.708Z,102852.55
2019-04-20T03:18:45.570Z,102852.81
2019-04-20T03:21:28.953Z,102847.92
2019-04-20T03:24:06.455Z,102854.23
2019-04-20T03:26:34.012Z,102855.45
2019-04-20T03:29:01.125Z,102856.61
2019-04-20T03:32:08.416Z,102851.62
2019-04-20T03:34:50.456Z,102854.50
2019-04-20T03:36:53.232Z,102858.28
2019-04-20T03:39:22.160Z,102852.74
2019-04-20T03:41:41.828Z,102857.88
2019-04-20T03:44:14.142Z,102858.70
2019-04-20T03:46:52.212Z,102863.52
2019-04-20T03:49:42.528Z,102865.68
2019-04-20T03:52:08.882Z,102863.06
2019-04-20T03:54:40.797Z,102861.75
2019-04-20T03:57:26.543Z,102862.41
2019-04-20T03:59:54.818Z,102861.41
2019-04-20T04:02:37.955Z,102861.82
2019-04-20T04:04:58.992Z,102857.83
2019-04-20T04:07:26.865Z,102851.59
2019-04-20T04:10:04.701Z,102858.08
2019-04-20T04:12:30.762Z,102854.91
2019-04-20T04:14:59.840Z,102853.09
2019-04-20T04:17:37.406Z,102855.22
2019-04-20T04:20:11.640Z,102853.41
2019-04-20T04:23:00.135Z,102866.34
2019-04-20T04:25:24.997Z,102867.84
2019-04-20T04:28:09.896Z,102869.40
2019-04-20T04:30:36.539Z,102866.94
2019-04-20T04:33:39.926Z,102864.97
2019-04-20T04:35:48.329Z,102869.33
2019-04-20T04:38:27.177Z,102867.52
2019-04-20T04:41:11.245Z,102872.76
2019-04-20T04:43:35.890Z,102877.43
2019-04-20T04:45:46.934Z,102874.81
2019-04-20T04:48:27.438Z,102877.48
2019-04-20T04:50:59.923Z,102871.45
2019-04-20T04:53:41.705Z,102878.64
2019-04-20T04:56:07.186Z,102880.11
2019-04-20T04:58:36.282Z,102878.96
2019-04-20T05:01:14.558Z,102879.93
2019-04-20T05:04:13.070Z,102877.00
2019-04-20T05:06:31.774Z,102887.63
2019-04-20T05:08:54.841Z,102879.02
2019-04-20T05:11:25.740Z,102888.75
2019-04-20T05:14:03.334Z,102893.83
2019-04-20T05:16:49.945Z,102889.75
2019-04-20T05:19:37.061Z,102896.50
2019-04-20T05:22:07.313Z,102900.59
2019-04-20T05:24:31.988Z,102904.77
2019-04-20T05:27:14.663Z,102908.99
2019-04-20T05:29:28.213Z,102903.10
2019-04-20T05:32:05.527Z,102899.16
2019-04-20T05:34:55.349Z,102899.87
2019-04-20T05:37:37.857Z,102897.09
2019-04-20T05:39:59.392Z,102905.19
2019-04-20T05:42:35.889Z,102897.10
2019-04-20T05:45:09.076Z,102899.12
2019-04-20T05:47:41.098Z,102904.19
2019-04-20T05:50:08.249Z,102904.83
2019-04-20T05:52:56.166Z,102913.92
2019-04-20T05:55:31.879Z,102904.27
2019-04-20T05:58:02.089Z,102903.41
2019-04-20T06:00:34.635Z,102902.87
2019-04-20T06:03:06.022Z,102910.56
2019-04-20T06:05:46.004Z,102902.78
2019-04-20T06:08:14.891Z,102907.48
2019-04-20T06:10:52.121Z,102912.56
2019-04-20T06:13:18.661Z,102911.03
2019-04-20T06:15:53.831Z,102916.55
2019-04-20T06:18:28.879Z,102917.05
2019-04-20T06:21:17.245Z,102917.23
2019-04-20T06:23:47.703Z,102919.69
2019-04-20T06:26:26.762Z,102923.89
2019-04-20T06:28:42.911Z,102924.05
2019-04-20T06:31:28.470Z,102923.74
2019-04-20T06:34:07.547Z,102926.68
2019-04-20T06:36:32.157Z,102923.73
2019-04-20T06:39:08.312Z,102929.36
2019-04-20T06:41:54.267Z,102926.77
2019-04-20T06:44:16.389Z,102925.15
2019-04-20T06:46:52.443Z,102928.29
2019-04-20T06:51:55.386Z,102929.48
2019-04-20T06:54:16.414Z,102928.06
2019-04-20T06:57:05.851Z,102928.41
2019-04-20T06:59:46.795Z,102929.69
2019-04-20T07:02:20.233Z,102930.55
2019-04-20T07:04:59.932Z,102928.73
2019-04-20T07:07:22.702Z,102927.30
2019-04-20T07:10:04.468Z,102932.55
2019-04-20T07:12:24.558Z,102926.80
2019-04-20T07:14:50.959Z,102932.05
2019-04-20T07:17:45.530Z,102931.42
2019-04-20T07:20:06.000Z,102932.73
2019-04-20T07:25:19.353Z,102937.02
2019-04-20T07:27:54.047Z,102928.67
2019-04-20T07:30:21.838Z,102927.69
2019-04-20T07:32:58.192Z,102927.14
2019-04-20T07:35:35.618Z,102926.58
2019-04-20T07:40:38.286Z,102925.98
2019-04-20T07:43:15.000Z,102926.73
2019-04-20T07:45:51.738Z,102929.38
2019-04-20T07:48:21.163Z,102930.10
2019-04-20T07:50:48.664Z,102928.71
2019-04-20T07:53:25.347Z,102935.27
2019-04-20T07:56:07.260Z,102932.94
2019-04-20T07:58:31.664Z,102935.47
2019-04-20T08:01:22.520Z,102931.86
2019-04-20T08:03:52.594Z,102930.08
2019-04-20T08:06:13.618Z,102933.85
2019-04-20T08:08:55.235Z,102935.53
2019-04-20T08:11:30.327Z,102933.17
2019-04-20T08:14:16.311Z,102932.05
2019-04-20T08:16:54.120Z,102931.22
2019-04-20T08:19:10.223Z,102926.60
2019-04-20T08:21:48.588Z,102930.47
2019-04-20T08:24:26.084Z,102935.72
2019-04-20T08:26:45.076Z,102937.84
2019-04-20T08:29:21.652Z,102937.12
2019-04-20T08:32:08.782Z,102938.88
2019-04-20T08:34:43.026Z,102938.88
2019-04-20T08:37:11.624Z,102934.23
2019-04-20T08:39:58.327Z,102934.78
2019-04-20T08:42:22.367Z,102935.09
2019-04-20T08:45:23.684Z,102934.44
2019-04-20T08:47:39.499Z,102931.94
2019-04-20T08:50:15.051Z,102930.73
2019-04-20T08:52:55.423Z,102934.92
2019-04-20T08:55:12.423Z,102931.95
2019-04-20T08:57:27.209Z,102916.66
2019-04-20T09:00:02.638Z,102923.00
2019-04-20T09:02:36.927Z,102925.38
2019-04-20T09:05:28.203Z,102925.38
2019-04-20T09:07:57.782Z,102909.97
2019-04-20T09:10:39.222Z,102925.22
2019-04-20T09:13:05.806Z,102925.22
2019-04-20T09:15:27.830Z,102925.27
2019-04-20T09:18:03.820Z,102922.39
2019-04-20T09:20:44.647Z,102922.39
2019-04-20T09:23:24.634Z,102911.42
2019-04-20T09:28:27.364Z,102917.38
2019-04-20T09:31:09.518Z,102916.62
2019-04-20T09:33:44.093Z,102917.28
2019-04-20T09:36:15.295Z,102921.06
2019-04-20T09:38:44.350Z,102918.54
2019-04-20T09:41:35.315Z,102920.44
2019-04-20T09:43:41.079Z,102913.86
2019-04-20T09:46:13.802Z,102916.18
2019-04-20T09:48:51.333Z,102903.93
2019-04-20T09:51:40.169Z,102899.22
2019-04-20T09:54:04.314Z,102901.09
2019-04-20T09:56:46.316Z,102896.27
2019-04-20T09:59:23.102Z,102884.72
2019-04-20T10:01:44.848Z,102886.56
2019-04-20T10:04:11.147Z,102887.87
2019-04-20T10:06:43.647Z,102891.06
2019-04-20T10:09:20.434Z,102886.78
2019-04-20T10:11:50.669Z,102880.69
2019-04-20T10:14:24.725Z,102883.04
2019-04-20T10:16:57.984Z,102878.14
2019-04-20T10:19:34.131Z,102878.62
2019-04-20T10:22:04.662Z,102885.28
2019-04-20T10:24:37.201Z,102881.78
2019-04-20T10:27:10.535Z,102883.15
2019-04-20T10:29:43.874Z,102877.80
2019-04-20T10:32:17.883Z,102885.36
2019-04-20T10:34:50.683Z,102881.38
2019-04-20T10:37:23.853Z,102876.08
2019-04-20T10:39:56.600Z,102873.05
2019-04-20T10:42:30.153Z,102873.09
2019-04-20T10:45:04.147Z,102870.89
2019-04-20T10:47:37.159Z,102875.37
2019-04-20T10:50:09.494Z,102868.70
2019-04-20T10:52:41.946Z,102870.03
2019-04-20T10:55:14.725Z,102868.78
2019-04-20T10:57:47.176Z,102865.30
2019-04-20T11:00:19.719Z,102866.20
2019-04-20T11:02:52.513Z,102859.98
2019-04-20T11:05:24.907Z,102853.31
2019-04-20T11:07:57.244Z,102856.45
2019-04-20T11:10:46.167Z,102860.47
2019-04-20T11:13:03.786Z,102855.58
2019-04-20T11:15:38.744Z,102852.48
2019-04-20T11:18:11.395Z,102848.97
2019-04-20T11:20:43.764Z,102858.33
2019-04-20T11:23:16.180Z,102849.44
2019-04-20T11:25:50.491Z,102843.19
2019-04-20T11:28:24.041Z,102848.09
2019-04-20T11:30:56.409Z,102845.89
2019-04-20T11:33:29.943Z,102843.19
2019-04-20T11:36:03.372Z,102843.63
2019-04-20T11:38:35.605Z,102839.14
2019-04-20T11:41:17.733Z,102835.55
2019-04-20T11:43:42.052Z,102838.64
2019-04-20T11:46:14.578Z,102838.48
2019-04-20T11:48:47.676Z,102836.03
2019-04-20T11:51:21.510Z,102837.98
2019-04-20T11:53:54.605Z,102841.03
2019-04-20T11:56:34.411Z,102842.99
2019-04-20T11:59:03.029Z,102835.60
2019-04-20T12:01:44.081Z,102840.19
2019-04-20T12:04:24.805Z,102836.48
2019-04-20T12:06:46.614Z,102836.96
2019-04-20T12:09:19.704Z,102832.00
2019-04-20T12:12:06.123Z,102834.78
2019-04-20T12:14:28.446Z,102830.63
2019-04-20T12:17:01.825Z,102832.02
2019-04-20T12:19:37.831Z,102824.05
2019-04-20T12:22:11.863Z,102831.23
2019-04-20T12:24:45.971Z,102817.72
2019-04-20T12:27:18.783Z,102817.72
2019-04-20T12:29:54.044Z,102838.61
2019-04-20T12:32:34.202Z,102838.61
2019-04-20T12:35:02.583Z,102833.27
2019-04-20T12:37:36.894Z,102814.32
2019-04-20T12:40:10.168Z,102814.32
2019-04-20T12:42:44.255Z,102823.58
2019-04-20T12:45:17.748Z,102814.25
2019-04-20T12:47:51.568Z,102809.96
2019-04-20T12:50:25.592Z,102809.96
2019-04-20T12:52:58.837Z,102817.55
2019-04-20T12:55:32.590Z,102816.53
2019-04-20T12:58:06.478Z,102821.80
2019-04-20T13:00:39.458Z,102812.23
2019-04-20T13:03:12.114Z,102807.26
2019-04-20T13:05:45.998Z,102806.97
2019-04-20T13:08:28.471Z,102800.66
2019-04-20T13:10:54.887Z,102806.66
2019-04-20T13:13:30.455Z,102811.56
2019-04-20T13:16:04.489Z,102794.78
2019-04-20T13:18:37.220Z,102799.33
2019-04-20T13:21:10.936Z,102798.44
2019-04-20T13:23:44.928Z,102796.02
2019-04-20T13:26:19.192Z,102797.69
2019-04-20T13:28:52.902Z,102785.38
2019-04-20T13:31:26.181Z,102783.72
2019-04-20T13:33:59.230Z,102786.50
2019-04-20T13:36:32.534Z,102786.78
2019-04-20T13:39:06.043Z,102788.44
2019-04-20T13:41:40.017Z,102786.44
2019-04-20T13:44:13.746Z,102780.97
2019-04-20T13:46:47.096Z,102780.44
2019-04-20T13:49:20.800Z,102783.89
2019-04-20T13:51:54.652Z,102772.75
2019-04-20T13:54:28.577Z,102775.19
2019-04-20T13:57:02.144Z,102769.64
2019-04-20T13:59:35.171Z,102764.34
2019-04-20T14:02:08.889Z,102759.22
2019-04-20T14:04:41.763Z,102754.91
2019-04-20T14:07:15.871Z,102746.83
2019-04-20T14:09:48.891Z,102734.09
2019-04-20T14:12:28.347Z,102734.09
2019-04-20T14:14:57.292Z,102728.79
2019-04-20T14:17:31.164Z,102724.27
2019-04-20T14:20:09.803Z,102718.25
2019-04-20T14:22:39.006Z,102714.77
2019-04-20T14:25:13.222Z,102718.25
2019-04-20T14:27:46.670Z,102713.81
2019-04-20T14:30:19.755Z,102707.31
2019-04-20T14:32:52.890Z,102710.22
2019-04-20T14:35:27.066Z,102707.84
2019-04-20T14:38:01.585Z,102709.93
2019-04-20T14:40:34.741Z,102708.89
2019-04-20T14:43:08.907Z,102700.31
2019-04-20T14:45:42.835Z,102697.41
2019-04-20T14:48:16.890Z,102690.52
2019-04-20T14:50:55.954Z,102690.22
2019-04-20T14:53:29.580Z,102679.86
2019-04-20T14:56:07.429Z,102683.70
2019-04-20T14:58:42.163Z,102679.70
2019-04-20T15:01:16.416Z,102666.77
2019-04-20T15:03:57.186Z,102661.09
2019-04-20T15:06:25.409Z,102661.78
2019-04-20T15:08:58.905Z,102664.70
2019-04-20T15:11:32.629Z,102662.88
2019-04-20T15:14:06.833Z,102659.44
2019-04-20T15:16:40.532Z,102661.67
2019-04-20T15:19:13.789Z,102648.10
2019-04-20T15:21:49.629Z,102646.50
2019-04-20T15:24:23.832Z,102640.19
2019-04-20T15:26:58.312Z,102648.57
2019-04-20T15:29:32.575Z,102649.59
2019-04-20T15:32:06.427Z,102651.24
2019-04-20T15:34:39.470Z,102649.08
2019-04-20T15:37:14.041Z,102639.73
2019-04-20T15:39:47.515Z,102644.30
2019-04-20T15:42:21.234Z,102634.30
2019-04-20T15:44:57.679Z,102640.75
2019-04-20T15:47:31.973Z,102635.64
2019-04-20T15:50:05.420Z,102639.03
2019-04-20T15:52:44.591Z,102642.64
2019-04-20T15:55:22.640Z,102639.98
2019-04-20T15:57:48.244Z,102637.02
2019-04-20T16:00:22.544Z,102630.50
2019-04-20T16:02:56.854Z,102630.30
2019-04-20T16:05:30.412Z,102640.84
2019-04-20T16:08:05.350Z,102637.63
2019-04-20T16:10:39.190Z,102632.30
2019-04-20T16:13:20.494Z,102635.91
2019-04-20T16:15:47.638Z,102629.34
2019-04-20T16:18:22.952Z,102632.61
2019-04-20T16:21:03.580Z,102631.71
2019-04-20T16:23:30.676Z,102621.23
2019-04-20T16:26:03.806Z,102621.23
2019-04-20T16:28:37.559Z,102623.91
2019-04-20T16:31:13.653Z,102619.58
2019-04-20T16:33:46.529Z,102612.94
2019-04-20T16:36:20.626Z,102616.81
2019-04-20T16:38:55.312Z,102612.58
2019-04-20T16:41:28.490Z,102611.63
2019-04-20T16:44:02.889Z,102606.48
2019-04-20T16:46:36.290Z,102607.07
2019-04-20T16:49:10.783Z,102606.80
2019-04-20T16:51:45.089Z,102603.35
2019-04-20T16:54:18.053Z,102599.01
2019-04-20T16:56:51.113Z,102604.24
2019-04-20T16:59:24.759Z,102606.27
2019-04-20T17:01:58.264Z,102595.30
2019-04-20T17:04:33.384Z,102598.78
2019-04-20T17:07:06.273Z,102599.78
2019-04-20T17:09:39.867Z,102604.44
2019-04-20T17:12:12.864Z,102585.68
2019-04-20T17:14:45.849Z,102592.57
2019-04-20T17:17:19.715Z,102587.59
2019-04-20T17:19:53.488Z,102584.96
2019-04-20T17:22:26.113Z,102586.13
2019-04-20T17:24:58.674Z,102583.07
2019-04-20T17:27:31.007Z,102578.44
2019-04-20T17:30:03.373Z,102578.66
2019-04-20T17:32:37.170Z,102578.39
2019-04-20T17:35:20.837Z,102577.62
2019-04-20T17:37:47.019Z,102581.22
2019-04-20T17:40:39.825Z,102585.70
2019-04-20T17:43:02.641Z,102582.20
2019-04-20T17:45:38.876Z,102575.48
2019-04-20T17:48:16.431Z,102574.16
2019-04-20T17:50:54.319Z,102568.39
2019-04-20T17:53:27.817Z,102574.16
2019-04-20T17:55:45.411Z,102574.12
2019-04-20T17:58:21.953Z,102575.82
2019-04-20T18:00:53.213Z,102578.90
2019-04-20T18:04:00.311Z,102577.08
2019-04-20T18:06:19.893Z,102578.38
2019-04-20T18:08:50.574Z,102582.76
2019-04-20T18:11:15.213Z,102581.38
2019-04-20T18:13:46.139Z,102583.53
2019-04-20T18:16:40.340Z,102579.45
2019-04-20T18:19:00.399Z,102586.03
2019-04-20T18:21:24.983Z,102588.61
2019-04-20T18:23:58.263Z,102584.55
2019-04-20T18:26:48.159Z,102581.38
2019-04-20T18:29:25.780Z,102580.88
2019-04-20T18:31:41.787Z,102577.72
2019-04-20T18:34:18.392Z,102581.64
2019-04-20T18:36:50.819Z,102583.70
2019-04-20T18:39:29.245Z,102588.02
2019-04-20T18:42:08.206Z,102583.92
2019-04-20T18:44:54.203Z,102582.08
2019-04-20T18:47:23.626Z,102579.80
2019-04-20T18:49:50.464Z,102587.25
2019-04-20T18:52:15.756Z,102590.67
2019-04-20T18:54:51.991Z,102588.33
2019-04-20T18:57:26.941Z,102595.26
2019-04-20T18:59:58.818Z,102595.55
2019-04-20T19:02:35.450Z,102599.78
2019-04-20T19:05:07.299Z,102599.78
2019-04-20T19:07:51.653Z,102597.45
2019-04-20T19:10:24.808Z,102599.44
2019-04-20T19:12:56.455Z,102599.44
2019-04-20T19:15:44.178Z,102602.83
2019-04-20T19:18:10.118Z,102600.44
2019-04-20T19:20:32.919Z,102600.31
2019-04-20T19:23:06.326Z,102598.40
2019-04-20T19:25:40.972Z,102599.64
2019-04-20T19:28:14.538Z,102597.33
2019-04-20T19:31:01.799Z,102603.77
2019-04-20T19:33:37.709Z,102608.20
2019-04-20T19:36:12.131Z,102610.77
2019-04-20T19:38:47.774Z,102617.29
2019-04-20T19:41:19.011Z,102621.55
2019-04-20T19:43:48.910Z,102621.55
2019-04-20T19:46:44.171Z,102621.45
2019-04-20T19:48:55.931Z,102620.50
2019-04-20T19:51:40.854Z,102617.75
2019-04-20T19:54:18.006Z,102618.50
2019-04-20T19:56:45.182Z,102622.36
2019-04-20T19:59:16.078Z,102616.08
2019-04-20T20:01:37.999Z,102629.14
2019-04-20T20:04:11.847Z,102620.11
2019-04-20T20:06:50.579Z,102615.52
2019-04-20T20:09:20.051Z,102624.64
2019-04-20T20:11:56.093Z,102619.20
2019-04-20T20:14:34.312Z,102629.70
2019-04-20T20:17:19.776Z,102634.34
2019-04-20T20:20:05.350Z,102636.80
2019-04-20T20:22:19.629Z,102635.26
2019-04-20T20:24:43.158Z,102631.09
2019-04-20T20:27:26.956Z,102629.66
2019-04-20T20:30:00.893Z,102623.77
2019-04-20T20:32:39.124Z,102630.25
2019-04-20T20:35:05.577Z,102640.18
2019-04-20T20:37:40.259Z,102643.98
2019-04-20T20:40:16.057Z,102644.70
2019-04-20T20:42:52.626Z,102647.69
2019-04-20T20:45:22.709Z,102645.34
2019-04-20T20:48:09.195Z,102645.12
2019-04-20T20:50:42.692Z,102648.35
2019-04-20T20:53:10.350Z,102654.86
2019-04-20T20:55:38.307Z,102650.77
2019-04-20T20:58:11.399Z,102653.25
2019-04-20T21:00:53.324Z,102647.70
2019-04-20T21:03:22.257Z,102643.11
2019-04-20T21:05:49.484Z,102648.63
2019-04-20T21:08:22.020Z,102656.35
2019-04-20T21:10:54.730Z,102652.26
2019-04-20T21:13:34.525Z,102649.00
2019-04-20T21:16:07.178Z,102646.14
2019-04-20T21:18:52.530Z,102641.60
2019-04-20T21:21:21.882Z,102644.52
2019-04-20T21:23:53.157Z,102644.74
2019-04-20T21:26:25.022Z,102645.41
2019-04-20T21:28:52.237Z,102643.36
2019-04-20T21:31:27.867Z,102639.67
2019-04-20T21:34:02.847Z,102640.06
2019-04-20T21:36:34.579Z,102632.91
2019-04-20T21:39:16.172Z,102628.30
2019-04-20T21:41:51.295Z,102635.99
2019-04-20T21:44:24.428Z,102627.88
2019-04-20T21:46:54.556Z,102628.20
2019-04-20T21:49:38.751Z,102628.53
2019-04-20T21:52:03.595Z,102628.80
2019-04-20T21:54:34.253Z,102628.09
2019-04-20T21:57:09.510Z,102627.84
2019-04-20T21:59:45.022Z,102621.56
2019-04-20T22:02:21.677Z,102629.30
2019-04-20T22:04:49.301Z,102623.88
2019-04-20T22:07:22.819Z,102629.46
2019-04-20T22:09:56.806Z,102634.15
2019-04-20T22:12:35.880Z,102634.86
2019-04-20T22:15:17.058Z,102627.59
2019-04-20T22:17:41.541Z,102629.61
2019-04-20T22:20:23.282Z,102629.45
2019-04-20T22:23:00.468Z,102624.02
2019-04-20T22:25:37.412Z,102629.12
2019-04-20T22:27:59.002Z,102627.19
2019-04-20T22:30:30.506Z,102625.25
2019-04-20T22:33:03.928Z,102618.50
2019-04-20T22:35:47.886Z,102619.16
2019-04-20T22:38:13.879Z,102619.55
2019-04-20T22:40:46.815Z,102614.91
2019-04-20T22:43:26.113Z,102619.55
2019-04-20T22:45:55.341Z,102616.26
2019-04-20T22:48:29.096Z,102612.55
2019-04-20T22:51:19.688Z,102616.32
2019-04-20T22:53:48.609Z,102614.83
2019-04-20T22:56:28.411Z,102608.88
2019-04-20T22:58:55.630Z,102614.85
2019-04-20T23:01:29.922Z,102612.01
2019-04-20T23:03:52.702Z,102613.11
2019-04-20T23:06:35.418Z,102605.94
2019-04-20T23:09:04.825Z,102605.72
2019-04-20T23:11:37.148Z,102595.44
2019-04-20T23:14:10.827Z,102605.66
2019-04-20T23:16:48.446Z,102602.87
2019-04-20T23:19:30.032Z,102603.17
2019-04-20T23:21:57.519Z,102600.41
2019-04-20T23:24:26.942Z,102596.34
2019-04-20T23:26:59.584Z,102597.96
2019-04-20T23:29:37.660Z,102593.87
2019-04-20T23:32:09.925Z,102596.79
2019-04-20T23:34:40.924Z,102587.94
2019-04-20T23:37:17.024Z,102587.91
2019-04-20T23:39:50.876Z,102589.06
2019-04-20T23:42:21.950Z,102589.81
2019-04-20T23:44:57.690Z,102587.81
2019-04-20T23:47:28.248Z,102585.08
2019-04-20T23:50:15.131Z,102574.45
2019-04-20T23:52:53.917Z,102572.61
2019-04-20T23:55:12.048Z,102572.95
2019-04-20T23:57:46.088Z,102566.23
